< Typhoon 199119 1991 Season Typhoon 199121 >
Typhoon 199120 (NAT)
General InformationTrack Information on Google MapsDetailed Wind InformationList of All Images || Disaster Info.ResourceGoogle EarthGE AnimationAtom FeedGeoJSON
Detalied Best Track (Time Zone = UTC)
Year Month Day Hour Lat. Long. Pressure (hPa) Wind (kt) Class Image Chart
1991 9 14 00 16.3 129.8 1004 0 2 Image Chart
1991 9 14 06 16.9 129.5 1004 0 2 Image Chart
1991 9 14 12 17.6 128.6 1004 0 2 Image Chart
1991 9 14 18 18.5 127.5 1004 0 2 Image Chart
1991 9 15 00 19.0 126.5 1004 0 2 Image Chart
1991 9 15 06 19.5 124.5 1004 0 2 Image Chart
1991 9 15 12 20.0 123.0 1004 0 2 Image Chart
1991 9 15 18 20.2 122.0 1002 0 2 Image Chart
1991 9 16 00 20.2 121.5 1002 0 2 Image Chart
1991 9 16 06 20.4 120.8 998 35 3 Image Chart
1991 9 16 12 20.7 119.7 998 35 3 Image Chart
1991 9 16 18 20.8 119.0 998 35 3 Image Chart
1991 9 17 00 20.6 118.5 996 40 3 Image Chart
1991 9 17 06 20.4 118.5 996 40 3 Image Chart
1991 9 17 12 20.2 118.6 996 40 3 Image Chart
1991 9 17 18 20.1 118.8 996 40 3 Image Chart
1991 9 18 00 20.0 119.0 994 40 3 Image Chart
1991 9 18 06 20.1 119.7 994 40 3 Image Chart
1991 9 18 12 20.2 120.0 994 40 3 Image Chart
1991 9 18 18 20.2 120.3 994 40 3 Image Chart
1991 9 19 00 20.2 120.6 994 40 3 Image Chart
1991 9 19 06 20.4 121.4 994 40 3 Image Chart
1991 9 19 12 20.6 121.8 994 40 3 Image Chart
1991 9 19 18 20.9 122.4 994 40 3 Image Chart
1991 9 20 00 21.4 123.5 994 40 3 Image Chart
1991 9 20 06 21.5 124.1 992 45 3 Image Chart
1991 9 20 12 21.4 125.1 990 45 3 Image Chart
1991 9 20 18 21.5 125.4 990 45 3 Image Chart
1991 9 21 00 21.2 125.4 985 50 4 Image Chart
1991 9 21 06 21.4 125.5 970 65 5 Image Chart
1991 9 21 12 21.5 125.3 965 70 5 Image Chart
1991 9 21 18 21.6 124.7 960 75 5 Image Chart
1991 9 22 00 21.6 124.0 955 75 5 Image Chart
1991 9 22 06 21.9 123.2 950 80 5 Image Chart
1991 9 22 12 22.0 122.5 950 80 5 Image Chart
1991 9 22 18 22.1 121.5 950 80 5 Image Chart
1991 9 23 00 22.1 120.7 960 80 5 Image Chart
1991 9 23 06 22.4 120.1 965 75 5 Image Chart
1991 9 23 12 22.6 119.8 975 65 5 Image Chart
1991 9 23 18 22.6 119.4 980 60 4 Image Chart
1991 9 24 00 22.6 118.5 985 50 4 Image Chart
1991 9 24 06 22.4 118.1 990 45 3 Image Chart
1991 9 24 12 22.1 118.1 994 40 3 Image Chart
1991 9 24 18 21.0 117.2 992 40 3 Image Chart
1991 9 25 00 20.1 116.7 992 40 3 Image Chart
1991 9 25 06 19.6 116.6 992 40 3 Image Chart
1991 9 25 12 18.9 116.5 992 40 3 Image Chart
1991 9 25 18 18.3 116.4 996 35 3 Image Chart
1991 9 26 00 17.5 115.9 996 35 3 Image Chart
1991 9 26 06 17.1 116.1 998 0 2 Image Chart
1991 9 26 12 16.5 116.0 998 0 2 Image Chart
1991 9 26 18 15.5 116.2 1000 0 2 Image Chart
1991 9 27 00 16.3 117.2 1004 0 2 Image Chart
1991 9 27 06 16.3 117.6 1004 0 2 Image Chart
1991 9 27 12 16.0 118.0 1002 0 2 Image Chart
1991 9 27 18 16.5 118.0 1002 0 2 Image Chart
1991 9 28 00 16.5 117.5 1002 0 2 Image Chart
1991 9 28 03 16.5 117.2 998 35 3 Image Chart
1991 9 28 06 16.5 117.0 996 35 3 Image Chart
1991 9 28 12 16.2 116.8 996 35 3 Image Chart
1991 9 28 18 16.0 116.5 996 35 3 Image Chart
1991 9 29 00 16.2 116.2 992 45 3 Image Chart
1991 9 29 06 16.4 115.9 985 50 4 Image Chart
1991 9 29 12 17.2 116.0 980 55 4 Image Chart
1991 9 29 18 17.9 116.5 980 55 4 Image Chart
1991 9 30 00 18.8 116.9 980 55 4 Image Chart
1991 9 30 06 19.9 117.3 975 60 4 Image Chart
1991 9 30 12 20.8 117.6 975 60 4 Image Chart
1991 9 30 18 21.7 117.6 975 60 4 Image Chart
1991 10 1 00 22.2 117.6 975 60 4 Image Chart
1991 10 1 03 22.5 117.6 970 65 5 Image Chart
1991 10 1 06 22.8 117.6 970 65 5 Image Chart
1991 10 1 12 23.4 117.4 975 60 4 Image Chart
1991 10 1 18 24.0 117.0 985 50 4 Image Chart
1991 10 1 21 24.2 116.7 990 45 3 Image Chart
1991 10 2 00 25.0 116.0 1008 0 2 Image Chart
1991 10 2 06 24.9 115.9 1008 0 2 Image Chart
1991 10 2 12 26.0 116.0 1010 0 2 Image Chart
1991 10 2 18 26.7 116.0 1010 0 2 Image Chart
1991 10 3 00 27.7 116.3 1012 0 2 Image Chart
1991 10 3 06 27.9 116.9 1008 0 2 Image Chart
Japan Meteorological Agency Best Track Data | Correction Date : 1992-01-04
< Typhoon 199119 1991 Season Typhoon 199121 >

Help